sensor_id;sensor_type;location;lat;lon;timestamp;P1;durP1;ratioP1;P2;durP2;ratioP2
16286;SDS011;8251;53.568;10.018;2023-05-07T00:01:07;6.13;;;4.80;;
16286;SDS011;8251;53.568;10.018;2023-05-07T00:03:34;6.83;;;4.77;;
16286;SDS011;8251;53.568;10.018;2023-05-07T00:06:01;8.20;;;6.07;;
16286;SDS011;8251;53.568;10.018;2023-05-07T00:08:28;8.53;;;5.17;;
16286;SDS011;8251;53.568;10.018;2023-05-07T00:10:55;8.47;;;5.37;;
16286;SDS011;8251;53.568;10.018;2023-05-07T00:13:24;9.33;;;5.90;;
16286;SDS011;8251;53.568;10.018;2023-05-07T00:15:51;9.40;;;5.87;;
16286;SDS011;8251;53.568;10.018;2023-05-07T00:18:17;6.73;;;5.37;;
16286;SDS011;8251;53.568;10.018;2023-05-07T00:20:47;11.43;;;6.23;;
16286;SDS011;8251;53.568;10.018;2023-05-07T00:23:14;7.67;;;5.33;;
16286;SDS011;8251;53.568;10.018;2023-05-07T00:25:41;7.47;;;5.53;;
16286;SDS011;8251;53.568;10.018;2023-05-07T00:28:08;8.10;;;5.70;;
16286;SDS011;8251;53.568;10.018;2023-05-07T00:30:36;8.20;;;5.13;;
16286;SDS011;8251;53.568;10.018;2023-05-07T00:33:03;9.27;;;5.70;;
16286;SDS011;8251;53.568;10.018;2023-05-07T00:35:30;7.30;;;4.93;;
16286;SDS011;8251;53.568;10.018;2023-05-07T00:37:57;8.73;;;5.97;;
16286;SDS011;8251;53.568;10.018;2023-05-07T00:40:24;8.70;;;5.80;;
16286;SDS011;8251;53.568;10.018;2023-05-07T00:42:51;8.50;;;6.10;;
16286;SDS011;8251;53.568;10.018;2023-05-07T00:45:23;7.27;;;5.27;;
16286;SDS011;8251;53.568;10.018;2023-05-07T00:47:55;9.90;;;5.53;;
16286;SDS011;8251;53.568;10.018;2023-05-07T00:50:23;8.57;;;5.37;;
16286;SDS011;8251;53.568;10.018;2023-05-07T00:52:50;8.03;;;5.00;;
16286;SDS011;8251;53.568;10.018;2023-05-07T00:55:17;12.27;;;5.87;;
16286;SDS011;8251;53.568;10.018;2023-05-07T00:57:45;10.10;;;5.83;;
16286;SDS011;8251;53.568;10.018;2023-05-07T01:00:12;9.23;;;6.33;;
16286;SDS011;8251;53.568;10.018;2023-05-07T01:02:39;10.30;;;6.73;;
16286;SDS011;8251;53.568;10.018;2023-05-07T01:05:09;9.23;;;5.97;;
16286;SDS011;8251;53.568;10.018;2023-05-07T01:07:37;7.97;;;5.63;;
16286;SDS011;8251;53.568;10.018;2023-05-07T01:10:06;8.87;;;5.00;;
16286;SDS011;8251;53.568;10.018;2023-05-07T01:12:35;7.90;;;5.13;;
16286;SDS011;8251;53.568;10.018;2023-05-07T01:15:03;7.20;;;5.60;;
16286;SDS011;8251;53.568;10.018;2023-05-07T01:17:32;9.03;;;5.10;;
16286;SDS011;8251;53.568;10.018;2023-05-07T01:20:00;9.37;;;6.30;;
16286;SDS011;8251;53.568;10.018;2023-05-07T01:22:31;6.80;;;4.60;;
16286;SDS011;8251;53.568;10.018;2023-05-07T01:24:59;8.03;;;4.73;;
16286;SDS011;8251;53.568;10.018;2023-05-07T01:27:27;6.40;;;4.37;;
16286;SDS011;8251;53.568;10.018;2023-05-07T01:29:54;7.10;;;4.60;;
16286;SDS011;8251;53.568;10.018;2023-05-07T01:32:23;6.07;;;4.70;;
16286;SDS011;8251;53.568;10.018;2023-05-07T01:34:53;5.37;;;4.33;;
16286;SDS011;8251;53.568;10.018;2023-05-07T01:37:21;6.50;;;4.83;;
16286;SDS011;8251;53.568;10.018;2023-05-07T01:39:51;7.57;;;4.90;;
16286;SDS011;8251;53.568;10.018;2023-05-07T01:42:19;6.53;;;5.07;;
16286;SDS011;8251;53.568;10.018;2023-05-07T01:44:46;7.67;;;4.40;;
16286;SDS011;8251;53.568;10.018;2023-05-07T01:47:13;7.83;;;5.27;;
16286;SDS011;8251;53.568;10.018;2023-05-07T01:49:41;8.10;;;4.67;;
16286;SDS011;8251;53.568;10.018;2023-05-07T01:52:09;7.13;;;4.53;;
16286;SDS011;8251;53.568;10.018;2023-05-07T01:54:36;6.20;;;4.43;;
16286;SDS011;8251;53.568;10.018;2023-05-07T01:57:05;5.67;;;4.33;;
16286;SDS011;8251;53.568;10.018;2023-05-07T01:59:31;6.93;;;4.70;;
16286;SDS011;8251;53.568;10.018;2023-05-07T02:01:58;7.33;;;4.23;;
16286;SDS011;8251;53.568;10.018;2023-05-07T02:04:25;5.60;;;4.37;;
16286;SDS011;8251;53.568;10.018;2023-05-07T02:06:52;6.57;;;4.37;;
16286;SDS011;8251;53.568;10.018;2023-05-07T02:09:19;6.60;;;4.70;;
16286;SDS011;8251;53.568;10.018;2023-05-07T02:11:47;7.83;;;4.70;;
16286;SDS011;8251;53.568;10.018;2023-05-07T02:14:15;7.23;;;4.93;;
16286;SDS011;8251;53.568;10.018;2023-05-07T02:16:42;6.10;;;5.13;;
16286;SDS011;8251;53.568;10.018;2023-05-07T02:19:09;7.60;;;5.27;;
16286;SDS011;8251;53.568;10.018;2023-05-07T02:21:36;6.77;;;4.50;;
16286;SDS011;8251;53.568;10.018;2023-05-07T02:24:03;6.07;;;4.47;;
16286;SDS011;8251;53.568;10.018;2023-05-07T02:26:30;6.07;;;4.27;;
16286;SDS011;8251;53.568;10.018;2023-05-07T02:28:57;7.83;;;4.40;;
16286;SDS011;8251;53.568;10.018;2023-05-07T02:31:25;6.50;;;4.17;;
16286;SDS011;8251;53.568;10.018;2023-05-07T02:33:52;7.53;;;4.57;;
16286;SDS011;8251;53.568;10.018;2023-05-07T02:36:19;4.70;;;3.90;;
16286;SDS011;8251;53.568;10.018;2023-05-07T02:38:46;7.13;;;4.40;;
16286;SDS011;8251;53.568;10.018;2023-05-07T02:41:13;5.10;;;3.83;;
16286;SDS011;8251;53.568;10.018;2023-05-07T02:43:40;6.37;;;4.20;;
16286;SDS011;8251;53.568;10.018;2023-05-07T02:46:07;6.40;;;4.13;;
16286;SDS011;8251;53.568;10.018;2023-05-07T02:48:36;6.63;;;4.23;;
16286;SDS011;8251;53.568;10.018;2023-05-07T02:51:03;7.63;;;4.87;;
16286;SDS011;8251;53.568;10.018;2023-05-07T02:53:31;5.63;;;4.20;;
16286;SDS011;8251;53.568;10.018;2023-05-07T02:55:59;7.07;;;4.37;;
16286;SDS011;8251;53.568;10.018;2023-05-07T02:58:26;6.53;;;4.60;;
16286;SDS011;8251;53.568;10.018;2023-05-07T03:00:53;7.70;;;4.47;;
16286;SDS011;8251;53.568;10.018;2023-05-07T03:03:20;6.53;;;4.50;;
16286;SDS011;8251;53.568;10.018;2023-05-07T03:05:49;6.10;;;4.43;;
16286;SDS011;8251;53.568;10.018;2023-05-07T03:08:15;7.53;;;4.93;;
16286;SDS011;8251;53.568;10.018;2023-05-07T03:10:42;9.93;;;5.07;;
16286;SDS011;8251;53.568;10.018;2023-05-07T03:13:09;7.33;;;4.43;;
16286;SDS011;8251;53.568;10.018;2023-05-07T03:15:36;9.90;;;5.60;;
16286;SDS011;8251;53.568;10.018;2023-05-07T03:18:03;7.70;;;4.70;;
16286;SDS011;8251;53.568;10.018;2023-05-07T03:20:30;7.40;;;5.07;;
16286;SDS011;8251;53.568;10.018;2023-05-07T03:22:59;9.50;;;5.17;;
16286;SDS011;8251;53.568;10.018;2023-05-07T03:25:27;7.90;;;4.90;;
16286;SDS011;8251;53.568;10.018;2023-05-07T03:27:55;7.47;;;5.33;;
16286;SDS011;8251;53.568;10.018;2023-05-07T03:30:22;9.33;;;5.60;;
16286;SDS011;8251;53.568;10.018;2023-05-07T03:32:49;7.80;;;5.33;;
16286;SDS011;8251;53.568;10.018;2023-05-07T03:35:16;7.27;;;5.43;;
16286;SDS011;8251;53.568;10.018;2023-05-07T03:37:43;7.70;;;5.23;;
16286;SDS011;8251;53.568;10.018;2023-05-07T03:40:11;7.97;;;5.13;;
16286;SDS011;8251;53.568;10.018;2023-05-07T03:42:38;7.63;;;4.80;;
16286;SDS011;8251;53.568;10.018;2023-05-07T03:45:06;6.10;;;4.80;;
16286;SDS011;8251;53.568;10.018;2023-05-07T03:47:34;7.17;;;4.93;;
16286;SDS011;8251;53.568;10.018;2023-05-07T03:50:00;6.40;;;5.10;;
16286;SDS011;8251;53.568;10.018;2023-05-07T03:52:27;5.80;;;4.50;;
16286;SDS011;8251;53.568;10.018;2023-05-07T03:54:54;8.57;;;5.17;;
16286;SDS011;8251;53.568;10.018;2023-05-07T03:57:23;7.00;;;4.70;;
16286;SDS011;8251;53.568;10.018;2023-05-07T03:59:50;6.83;;;4.97;;
16286;SDS011;8251;53.568;10.018;2023-05-07T04:02:17;5.23;;;3.97;;
16286;SDS011;8251;53.568;10.018;2023-05-07T04:04:44;6.77;;;4.70;;
16286;SDS011;8251;53.568;10.018;2023-05-07T04:07:11;8.13;;;4.50;;
16286;SDS011;8251;53.568;10.018;2023-05-07T04:09:37;6.97;;;5.50;;
16286;SDS011;8251;53.568;10.018;2023-05-07T04:12:04;7.00;;;4.50;;
16286;SDS011;8251;53.568;10.018;2023-05-07T04:14:33;7.47;;;5.27;;
16286;SDS011;8251;53.568;10.018;2023-05-07T04:17:00;7.10;;;5.03;;
16286;SDS011;8251;53.568;10.018;2023-05-07T04:19:27;9.57;;;5.97;;
16286;SDS011;8251;53.568;10.018;2023-05-07T04:21:54;7.40;;;5.00;;
16286;SDS011;8251;53.568;10.018;2023-05-07T04:24:24;6.67;;;4.17;;
16286;SDS011;8251;53.568;10.018;2023-05-07T04:26:58;7.80;;;4.93;;
16286;SDS011;8251;53.568;10.018;2023-05-07T04:29:29;7.87;;;5.70;;
16286;SDS011;8251;53.568;10.018;2023-05-07T04:31:58;7.93;;;5.40;;
16286;SDS011;8251;53.568;10.018;2023-05-07T04:34:25;7.63;;;4.83;;
16286;SDS011;8251;53.568;10.018;2023-05-07T04:36:52;7.17;;;5.10;;
16286;SDS011;8251;53.568;10.018;2023-05-07T04:39:18;6.73;;;4.53;;
16286;SDS011;8251;53.568;10.018;2023-05-07T04:41:45;6.17;;;4.10;;
16286;SDS011;8251;53.568;10.018;2023-05-07T04:44:12;5.93;;;4.63;;
16286;SDS011;8251;53.568;10.018;2023-05-07T04:46:40;6.17;;;4.47;;
16286;SDS011;8251;53.568;10.018;2023-05-07T04:49:09;5.80;;;4.27;;
16286;SDS011;8251;53.568;10.018;2023-05-07T04:51:36;6.37;;;4.47;;
16286;SDS011;8251;53.568;10.018;2023-05-07T04:54:03;7.30;;;4.73;;
16286;SDS011;8251;53.568;10.018;2023-05-07T04:56:30;5.70;;;4.60;;
16286;SDS011;8251;53.568;10.018;2023-05-07T04:58:57;5.33;;;3.80;;
16286;SDS011;8251;53.568;10.018;2023-05-07T05:01:24;5.73;;;4.10;;
16286;SDS011;8251;53.568;10.018;2023-05-07T05:03:51;7.37;;;4.50;;
16286;SDS011;8251;53.568;10.018;2023-05-07T05:06:19;5.60;;;3.80;;
16286;SDS011;8251;53.568;10.018;2023-05-07T05:08:46;5.67;;;4.60;;
16286;SDS011;8251;53.568;10.018;2023-05-07T05:11:13;5.83;;;4.33;;
16286;SDS011;8251;53.568;10.018;2023-05-07T05:13:40;6.73;;;4.60;;
16286;SDS011;8251;53.568;10.018;2023-05-07T05:16:07;5.67;;;4.50;;
16286;SDS011;8251;53.568;10.018;2023-05-07T05:18:34;6.27;;;4.47;;
16286;SDS011;8251;53.568;10.018;2023-05-07T05:21:01;9.23;;;5.50;;
16286;SDS011;8251;53.568;10.018;2023-05-07T05:23:29;8.03;;;4.70;;
16286;SDS011;8251;53.568;10.018;2023-05-07T05:25:56;8.30;;;5.10;;
16286;SDS011;8251;53.568;10.018;2023-05-07T05:28:24;7.37;;;5.03;;
16286;SDS011;8251;53.568;10.018;2023-05-07T05:30:52;6.83;;;4.97;;
16286;SDS011;8251;53.568;10.018;2023-05-07T05:33:19;7.83;;;4.43;;
16286;SDS011;8251;53.568;10.018;2023-05-07T05:35:46;8.40;;;4.60;;
16286;SDS011;8251;53.568;10.018;2023-05-07T05:38:13;6.40;;;4.73;;
16286;SDS011;8251;53.568;10.018;2023-05-07T05:40:42;6.27;;;4.57;;
16286;SDS011;8251;53.568;10.018;2023-05-07T05:43:11;6.03;;;3.93;;
16286;SDS011;8251;53.568;10.018;2023-05-07T05:45:38;5.67;;;3.87;;
16286;SDS011;8251;53.568;10.018;2023-05-07T05:48:07;6.87;;;4.47;;
16286;SDS011;8251;53.568;10.018;2023-05-07T05:50:35;5.37;;;4.07;;
16286;SDS011;8251;53.568;10.018;2023-05-07T05:53:04;6.37;;;4.43;;
16286;SDS011;8251;53.568;10.018;2023-05-07T05:55:31;5.57;;;4.43;;
16286;SDS011;8251;53.568;10.018;2023-05-07T05:58:00;6.70;;;4.80;;
16286;SDS011;8251;53.568;10.018;2023-05-07T06:00:29;12.37;;;5.77;;
16286;SDS011;8251;53.568;10.018;2023-05-07T06:02:56;5.83;;;4.37;;
16286;SDS011;8251;53.568;10.018;2023-05-07T06:05:23;5.00;;;3.97;;
16286;SDS011;8251;53.568;10.018;2023-05-07T06:07:50;7.07;;;4.63;;
16286;SDS011;8251;53.568;10.018;2023-05-07T06:10:17;7.03;;;4.30;;
16286;SDS011;8251;53.568;10.018;2023-05-07T06:12:45;6.60;;;4.60;;
16286;SDS011;8251;53.568;10.018;2023-05-07T06:15:13;8.07;;;4.93;;
16286;SDS011;8251;53.568;10.018;2023-05-07T06:17:40;6.23;;;4.20;;
16286;SDS011;8251;53.568;10.018;2023-05-07T06:20:07;6.20;;;4.53;;
16286;SDS011;8251;53.568;10.018;2023-05-07T06:22:34;5.97;;;4.10;;
16286;SDS011;8251;53.568;10.018;2023-05-07T06:25:01;7.07;;;3.80;;
16286;SDS011;8251;53.568;10.018;2023-05-07T06:27:29;7.43;;;4.73;;
16286;SDS011;8251;53.568;10.018;2023-05-07T06:29:56;8.50;;;4.90;;
16286;SDS011;8251;53.568;10.018;2023-05-07T06:32:24;5.13;;;4.30;;
16286;SDS011;8251;53.568;10.018;2023-05-07T06:34:51;8.67;;;5.20;;
16286;SDS011;8251;53.568;10.018;2023-05-07T06:37:18;5.77;;;4.77;;
16286;SDS011;8251;53.568;10.018;2023-05-07T06:39:45;6.37;;;4.30;;
16286;SDS011;8251;53.568;10.018;2023-05-07T06:42:12;5.27;;;4.13;;
16286;SDS011;8251;53.568;10.018;2023-05-07T06:44:39;6.90;;;4.30;;
16286;SDS011;8251;53.568;10.018;2023-05-07T06:47:05;6.63;;;4.20;;
16286;SDS011;8251;53.568;10.018;2023-05-07T06:49:34;6.23;;;3.97;;
16286;SDS011;8251;53.568;10.018;2023-05-07T06:52:01;6.03;;;4.17;;
16286;SDS011;8251;53.568;10.018;2023-05-07T06:54:28;5.17;;;3.97;;
16286;SDS011;8251;53.568;10.018;2023-05-07T06:56:55;5.93;;;3.63;;
16286;SDS011;8251;53.568;10.018;2023-05-07T06:59:24;8.73;;;4.73;;
16286;SDS011;8251;53.568;10.018;2023-05-07T07:01:51;5.87;;;4.30;;
16286;SDS011;8251;53.568;10.018;2023-05-07T07:04:18;7.43;;;4.80;;
16286;SDS011;8251;53.568;10.018;2023-05-07T07:06:49;5.73;;;4.47;;
16286;SDS011;8251;53.568;10.018;2023-05-07T07:09:17;6.53;;;4.10;;
16286;SDS011;8251;53.568;10.018;2023-05-07T07:11:44;5.43;;;4.20;;
16286;SDS011;8251;53.568;10.018;2023-05-07T07:14:11;7.37;;;4.83;;
16286;SDS011;8251;53.568;10.018;2023-05-07T07:16:39;7.13;;;4.80;;
16286;SDS011;8251;53.568;10.018;2023-05-07T07:19:06;5.87;;;4.20;;
16286;SDS011;8251;53.568;10.018;2023-05-07T07:21:33;7.80;;;4.13;;
16286;SDS011;8251;53.568;10.018;2023-05-07T07:24:02;6.13;;;3.90;;
16286;SDS011;8251;53.568;10.018;2023-05-07T07:26:29;5.90;;;3.73;;
16286;SDS011;8251;53.568;10.018;2023-05-07T07:28:56;4.47;;;3.67;;
16286;SDS011;8251;53.568;10.018;2023-05-07T07:31:23;4.93;;;3.77;;
16286;SDS011;8251;53.568;10.018;2023-05-07T07:33:50;4.73;;;3.40;;
16286;SDS011;8251;53.568;10.018;2023-05-07T07:36:16;4.13;;;3.13;;
16286;SDS011;8251;53.568;10.018;2023-05-07T07:38:43;6.30;;;4.00;;
16286;SDS011;8251;53.568;10.018;2023-05-07T07:41:11;5.77;;;3.87;;
16286;SDS011;8251;53.568;10.018;2023-05-07T07:43:39;4.37;;;3.37;;
16286;SDS011;8251;53.568;10.018;2023-05-07T07:46:06;5.17;;;3.27;;
16286;SDS011;8251;53.568;10.018;2023-05-07T07:48:33;6.57;;;3.83;;
16286;SDS011;8251;53.568;10.018;2023-05-07T07:51:00;4.83;;;4.23;;
16286;SDS011;8251;53.568;10.018;2023-05-07T07:53:26;4.83;;;3.80;;
16286;SDS011;8251;53.568;10.018;2023-05-07T07:55:53;4.43;;;3.43;;
16286;SDS011;8251;53.568;10.018;2023-05-07T07:58:22;6.70;;;4.10;;
16286;SDS011;8251;53.568;10.018;2023-05-07T08:00:50;4.73;;;3.60;;
16286;SDS011;8251;53.568;10.018;2023-05-07T08:03:17;3.70;;;2.87;;
16286;SDS011;8251;53.568;10.018;2023-05-07T08:05:44;3.67;;;3.17;;
16286;SDS011;8251;53.568;10.018;2023-05-07T08:08:11;5.87;;;3.17;;
16286;SDS011;8251;53.568;10.018;2023-05-07T08:10:38;3.87;;;3.23;;
16286;SDS011;8251;53.568;10.018;2023-05-07T08:13:06;3.70;;;3.17;;
16286;SDS011;8251;53.568;10.018;2023-05-07T08:15:34;5.03;;;3.30;;
16286;SDS011;8251;53.568;10.018;2023-05-07T08:18:03;4.50;;;2.87;;
16286;SDS011;8251;53.568;10.018;2023-05-07T08:20:29;3.83;;;3.37;;
16286;SDS011;8251;53.568;10.018;2023-05-07T08:22:57;6.73;;;3.97;;
16286;SDS011;8251;53.568;10.018;2023-05-07T08:25:24;5.10;;;3.63;;
16286;SDS011;8251;53.568;10.018;2023-05-07T08:27:50;5.77;;;3.50;;
16286;SDS011;8251;53.568;10.018;2023-05-07T08:30:18;3.83;;;3.10;;
16286;SDS011;8251;53.568;10.018;2023-05-07T08:32:46;6.80;;;3.90;;
16286;SDS011;8251;53.568;10.018;2023-05-07T08:35:13;4.53;;;3.57;;
16286;SDS011;8251;53.568;10.018;2023-05-07T08:37:40;5.47;;;3.67;;
16286;SDS011;8251;53.568;10.018;2023-05-07T08:40:07;5.90;;;3.57;;
16286;SDS011;8251;53.568;10.018;2023-05-07T08:42:35;4.30;;;3.43;;
16286;SDS011;8251;53.568;10.018;2023-05-07T08:45:05;6.00;;;3.37;;
16286;SDS011;8251;53.568;10.018;2023-05-07T08:47:40;13.97;;;6.03;;
16286;SDS011;8251;53.568;10.018;2023-05-07T08:50:11;4.50;;;3.57;;
16286;SDS011;8251;53.568;10.018;2023-05-07T08:52:39;4.27;;;3.77;;
16286;SDS011;8251;53.568;10.018;2023-05-07T08:55:07;5.63;;;3.40;;
16286;SDS011;8251;53.568;10.018;2023-05-07T08:57:35;3.77;;;3.10;;
16286;SDS011;8251;53.568;10.018;2023-05-07T09:00:03;4.17;;;2.97;;
16286;SDS011;8251;53.568;10.018;2023-05-07T09:02:32;6.17;;;3.50;;
16286;SDS011;8251;53.568;10.018;2023-05-07T09:04:59;5.83;;;3.93;;
16286;SDS011;8251;53.568;10.018;2023-05-07T09:07:28;8.37;;;3.73;;
16286;SDS011;8251;53.568;10.018;2023-05-07T09:09:56;7.00;;;3.97;;
16286;SDS011;8251;53.568;10.018;2023-05-07T09:12:24;5.67;;;3.70;;
16286;SDS011;8251;53.568;10.018;2023-05-07T09:14:53;4.67;;;3.37;;
16286;SDS011;8251;53.568;10.018;2023-05-07T09:17:20;5.30;;;3.60;;
16286;SDS011;8251;53.568;10.018;2023-05-07T09:19:47;4.47;;;3.40;;
16286;SDS011;8251;53.568;10.018;2023-05-07T09:22:14;4.87;;;3.20;;
16286;SDS011;8251;53.568;10.018;2023-05-07T09:24:43;5.67;;;3.27;;
16286;SDS011;8251;53.568;10.018;2023-05-07T09:27:14;4.87;;;3.67;;
16286;SDS011;8251;53.568;10.018;2023-05-07T09:29:41;4.20;;;3.53;;
16286;SDS011;8251;53.568;10.018;2023-05-07T09:32:09;4.60;;;3.30;;
16286;SDS011;8251;53.568;10.018;2023-05-07T09:34:36;3.80;;;3.10;;
16286;SDS011;8251;53.568;10.018;2023-05-07T09:37:04;4.63;;;3.17;;
16286;SDS011;8251;53.568;10.018;2023-05-07T09:39:38;3.87;;;3.23;;
16286;SDS011;8251;53.568;10.018;2023-05-07T09:42:08;4.57;;;3.70;;
16286;SDS011;8251;53.568;10.018;2023-05-07T09:44:37;4.80;;;3.13;;
16286;SDS011;8251;53.568;10.018;2023-05-07T09:47:05;3.57;;;3.13;;
16286;SDS011;8251;53.568;10.018;2023-05-07T09:49:34;5.27;;;3.50;;
16286;SDS011;8251;53.568;10.018;2023-05-07T09:52:02;4.67;;;3.70;;
16286;SDS011;8251;53.568;10.018;2023-05-07T09:54:31;4.90;;;4.17;;
16286;SDS011;8251;53.568;10.018;2023-05-07T09:56:59;6.93;;;3.37;;
16286;SDS011;8251;53.568;10.018;2023-05-07T09:59:32;5.77;;;2.90;;
16286;SDS011;8251;53.568;10.018;2023-05-07T10:02:00;5.03;;;3.30;;
16286;SDS011;8251;53.568;10.018;2023-05-07T10:04:28;3.13;;;2.83;;
16286;SDS011;8251;53.568;10.018;2023-05-07T10:06:57;6.00;;;4.10;;
16286;SDS011;8251;53.568;10.018;2023-05-07T10:09:25;4.77;;;4.03;;
16286;SDS011;8251;53.568;10.018;2023-05-07T10:11:52;4.37;;;3.70;;
16286;SDS011;8251;53.568;10.018;2023-05-07T10:14:21;4.37;;;3.43;;
16286;SDS011;8251;53.568;10.018;2023-05-07T10:16:50;4.70;;;3.40;;
16286;SDS011;8251;53.568;10.018;2023-05-07T10:19:19;4.10;;;3.50;;
16286;SDS011;8251;53.568;10.018;2023-05-07T10:21:48;6.57;;;3.93;;
16286;SDS011;8251;53.568;10.018;2023-05-07T10:24:25;5.40;;;3.90;;
16286;SDS011;8251;53.568;10.018;2023-05-07T10:26:53;3.80;;;3.20;;
16286;SDS011;8251;53.568;10.018;2023-05-07T10:29:25;3.53;;;3.00;;
16286;SDS011;8251;53.568;10.018;2023-05-07T10:32:08;4.00;;;3.60;;
16286;SDS011;8251;53.568;10.018;2023-05-07T10:34:54;4.67;;;2.77;;
16286;SDS011;8251;53.568;10.018;2023-05-07T10:37:22;4.47;;;3.23;;
16286;SDS011;8251;53.568;10.018;2023-05-07T10:39:51;4.30;;;3.20;;
16286;SDS011;8251;53.568;10.018;2023-05-07T10:42:18;3.57;;;3.10;;
16286;SDS011;8251;53.568;10.018;2023-05-07T10:44:45;4.17;;;2.80;;
16286;SDS011;8251;53.568;10.018;2023-05-07T10:47:14;3.83;;;3.53;;
16286;SDS011;8251;53.568;10.018;2023-05-07T10:55:50;5.87;;;2.90;;
16286;SDS011;8251;53.568;10.018;2023-05-07T10:58:24;3.77;;;3.30;;
16286;SDS011;8251;53.568;10.018;2023-05-07T11:00:55;3.53;;;3.23;;
16286;SDS011;8251;53.568;10.018;2023-05-07T11:03:25;4.23;;;2.97;;
16286;SDS011;8251;53.568;10.018;2023-05-07T11:06:11;3.60;;;3.30;;
16286;SDS011;8251;53.568;10.018;2023-05-07T11:08:52;4.87;;;3.30;;
16286;SDS011;8251;53.568;10.018;2023-05-07T11:11:20;4.90;;;2.70;;
16286;SDS011;8251;53.568;10.018;2023-05-07T11:14:13;4.10;;;3.00;;
16286;SDS011;8251;53.568;10.018;2023-05-07T11:16:41;2.87;;;2.67;;
16286;SDS011;8251;53.568;10.018;2023-05-07T11:19:10;5.10;;;2.43;;
16286;SDS011;8251;53.568;10.018;2023-05-07T11:21:38;2.97;;;2.67;;
16286;SDS011;8251;53.568;10.018;2023-05-07T11:24:06;4.63;;;3.07;;
16286;SDS011;8251;53.568;10.018;2023-05-07T11:26:46;4.97;;;3.60;;
16286;SDS011;8251;53.568;10.018;2023-05-07T11:29:14;3.60;;;3.27;;
16286;SDS011;8251;53.568;10.018;2023-05-07T11:31:42;3.27;;;2.97;;
16286;SDS011;8251;53.568;10.018;2023-05-07T11:34:11;3.03;;;2.73;;
16286;SDS011;8251;53.568;10.018;2023-05-07T11:36:41;2.93;;;2.40;;
16286;SDS011;8251;53.568;10.018;2023-05-07T11:39:25;3.13;;;2.83;;
16286;SDS011;8251;53.568;10.018;2023-05-07T11:41:54;4.03;;;2.90;;
16286;SDS011;8251;53.568;10.018;2023-05-07T11:44:21;3.43;;;2.53;;
16286;SDS011;8251;53.568;10.018;2023-05-07T11:46:48;5.20;;;3.00;;
16286;SDS011;8251;53.568;10.018;2023-05-07T11:49:16;3.57;;;2.63;;
16286;SDS011;8251;53.568;10.018;2023-05-07T11:51:44;12.57;;;3.27;;
16286;SDS011;8251;53.568;10.018;2023-05-07T11:54:11;6.57;;;2.67;;
16286;SDS011;8251;53.568;10.018;2023-05-07T11:56:43;2.80;;;2.50;;
16286;SDS011;8251;53.568;10.018;2023-05-07T11:59:12;2.73;;;2.33;;
16286;SDS011;8251;53.568;10.018;2023-05-07T12:01:45;4.07;;;2.63;;
16286;SDS011;8251;53.568;10.018;2023-05-07T12:04:12;2.80;;;2.20;;
16286;SDS011;8251;53.568;10.018;2023-05-07T12:06:41;2.77;;;2.30;;
16286;SDS011;8251;53.568;10.018;2023-05-07T12:09:07;2.43;;;2.17;;
16286;SDS011;8251;53.568;10.018;2023-05-07T12:11:36;2.40;;;2.20;;
16286;SDS011;8251;53.568;10.018;2023-05-07T12:14:04;2.77;;;2.53;;
16286;SDS011;8251;53.568;10.018;2023-05-07T12:16:31;2.53;;;2.30;;
16286;SDS011;8251;53.568;10.018;2023-05-07T12:18:59;4.57;;;2.27;;
16286;SDS011;8251;53.568;10.018;2023-05-07T12:21:26;2.40;;;2.20;;
16286;SDS011;8251;53.568;10.018;2023-05-07T12:23:55;2.67;;;2.30;;
16286;SDS011;8251;53.568;10.018;2023-05-07T12:26:23;2.17;;;1.97;;
16286;SDS011;8251;53.568;10.018;2023-05-07T12:28:50;2.60;;;2.30;;
16286;SDS011;8251;53.568;10.018;2023-05-07T12:31:17;2.37;;;1.90;;
16286;SDS011;8251;53.568;10.018;2023-05-07T12:33:45;2.10;;;1.90;;
16286;SDS011;8251;53.568;10.018;2023-05-07T12:36:12;1.93;;;1.80;;
16286;SDS011;8251;53.568;10.018;2023-05-07T12:38:40;2.20;;;2.00;;
16286;SDS011;8251;53.568;10.018;2023-05-07T12:41:09;4.07;;;2.13;;
16286;SDS011;8251;53.568;10.018;2023-05-07T12:43:37;2.07;;;1.87;;
16286;SDS011;8251;53.568;10.018;2023-05-07T12:46:04;2.03;;;1.93;;
16286;SDS011;8251;53.568;10.018;2023-05-07T12:48:32;3.27;;;2.00;;
16286;SDS011;8251;53.568;10.018;2023-05-07T12:51:00;2.30;;;1.90;;
16286;SDS011;8251;53.568;10.018;2023-05-07T12:53:28;1.93;;;1.70;;
16286;SDS011;8251;53.568;10.018;2023-05-07T12:55:56;2.10;;;1.83;;
16286;SDS011;8251;53.568;10.018;2023-05-07T12:58:26;1.90;;;1.80;;
16286;SDS011;8251;53.568;10.018;2023-05-07T13:00:55;1.80;;;1.70;;
16286;SDS011;8251;53.568;10.018;2023-05-07T13:03:24;1.73;;;1.63;;
16286;SDS011;8251;53.568;10.018;2023-05-07T13:05:53;4.73;;;2.00;;
16286;SDS011;8251;53.568;10.018;2023-05-07T13:08:25;2.07;;;1.83;;
16286;SDS011;8251;53.568;10.018;2023-05-07T13:10:53;3.00;;;1.90;;
16286;SDS011;8251;53.568;10.018;2023-05-07T13:13:20;2.37;;;2.13;;
16286;SDS011;8251;53.568;10.018;2023-05-07T13:15:49;2.60;;;1.70;;
16286;SDS011;8251;53.568;10.018;2023-05-07T13:18:16;3.70;;;1.90;;
16286;SDS011;8251;53.568;10.018;2023-05-07T13:20:43;4.30;;;1.80;;
16286;SDS011;8251;53.568;10.018;2023-05-07T13:23:10;1.60;;;1.50;;
16286;SDS011;8251;53.568;10.018;2023-05-07T13:25:37;2.07;;;1.87;;
16286;SDS011;8251;53.568;10.018;2023-05-07T13:28:04;2.80;;;1.63;;
16286;SDS011;8251;53.568;10.018;2023-05-07T13:30:31;2.20;;;1.90;;
16286;SDS011;8251;53.568;10.018;2023-05-07T13:32:59;3.50;;;1.60;;
16286;SDS011;8251;53.568;10.018;2023-05-07T13:35:27;1.67;;;1.57;;
16286;SDS011;8251;53.568;10.018;2023-05-07T13:37:59;2.90;;;1.33;;
16286;SDS011;8251;53.568;10.018;2023-05-07T13:40:30;1.47;;;1.37;;
16286;SDS011;8251;53.568;10.018;2023-05-07T13:42:58;3.43;;;1.43;;
16286;SDS011;8251;53.568;10.018;2023-05-07T13:45:27;1.60;;;1.50;;
16286;SDS011;8251;53.568;10.018;2023-05-07T13:47:54;2.10;;;1.73;;
16286;SDS011;8251;53.568;10.018;2023-05-07T13:50:23;1.50;;;1.40;;
16286;SDS011;8251;53.568;10.018;2023-05-07T13:52:52;1.60;;;1.50;;
16286;SDS011;8251;53.568;10.018;2023-05-07T13:55:19;1.90;;;1.67;;
16286;SDS011;8251;53.568;10.018;2023-05-07T13:57:47;2.80;;;1.47;;
16286;SDS011;8251;53.568;10.018;2023-05-07T14:00:21;2.43;;;1.83;;
16286;SDS011;8251;53.568;10.018;2023-05-07T14:02:48;2.60;;;1.57;;
16286;SDS011;8251;53.568;10.018;2023-05-07T14:05:15;1.70;;;1.60;;
16286;SDS011;8251;53.568;10.018;2023-05-07T14:07:45;1.53;;;1.40;;
16286;SDS011;8251;53.568;10.018;2023-05-07T14:10:16;1.53;;;1.17;;
16286;SDS011;8251;53.568;10.018;2023-05-07T14:12:44;1.63;;;1.47;;
16286;SDS011;8251;53.568;10.018;2023-05-07T14:15:12;1.90;;;1.50;;
16286;SDS011;8251;53.568;10.018;2023-05-07T14:17:39;1.60;;;1.50;;
16286;SDS011;8251;53.568;10.018;2023-05-07T14:20:06;2.63;;;1.53;;
16286;SDS011;8251;53.568;10.018;2023-05-07T14:22:35;1.80;;;1.33;;
16286;SDS011;8251;53.568;10.018;2023-05-07T14:25:11;2.53;;;1.47;;
16286;SDS011;8251;53.568;10.018;2023-05-07T14:27:38;10.07;;;2.03;;
16286;SDS011;8251;53.568;10.018;2023-05-07T14:30:05;2.27;;;1.30;;
16286;SDS011;8251;53.568;10.018;2023-05-07T14:32:33;1.00;;;1.00;;
16286;SDS011;8251;53.568;10.018;2023-05-07T14:35:03;2.53;;;1.30;;
16286;SDS011;8251;53.568;10.018;2023-05-07T14:37:30;1.93;;;1.30;;
16286;SDS011;8251;53.568;10.018;2023-05-07T14:39:57;2.43;;;1.57;;
16286;SDS011;8251;53.568;10.018;2023-05-07T14:42:26;1.67;;;1.40;;
16286;SDS011;8251;53.568;10.018;2023-05-07T14:44:53;2.30;;;1.20;;
16286;SDS011;8251;53.568;10.018;2023-05-07T14:47:20;1.80;;;1.30;;
16286;SDS011;8251;53.568;10.018;2023-05-07T14:49:47;1.23;;;1.13;;
16286;SDS011;8251;53.568;10.018;2023-05-07T14:52:13;2.77;;;1.50;;
16286;SDS011;8251;53.568;10.018;2023-05-07T14:54:42;1.77;;;1.33;;
16286;SDS011;8251;53.568;10.018;2023-05-07T14:57:10;1.87;;;1.40;;
16286;SDS011;8251;53.568;10.018;2023-05-07T14:59:39;3.93;;;1.40;;